createdAt,value
2022-11-26T00:00:13.656Z,262.92
2022-11-26T00:03:01.428Z,412.20
2022-11-26T00:05:32.526Z,201.52
2022-11-26T00:08:04.482Z,207.68
2022-11-26T00:10:36.332Z,204.95
2022-11-26T00:13:03.784Z,193.75
2022-11-26T00:15:35.846Z,242.88
2022-11-26T00:18:03.096Z,211.88
2022-11-26T00:20:33.934Z,208.25
2022-11-26T00:23:23.806Z,180.63
2022-11-26T00:25:59.893Z,176.85
2022-11-26T00:28:32.005Z,176.68
2022-11-26T00:31:12.810Z,164.93
2022-11-26T00:33:40.352Z,211.48
2022-11-26T00:36:25.799Z,164.20
2022-11-26T00:39:18.931Z,182.98
2022-11-26T00:41:52.292Z,205.23
2022-11-26T00:44:43.052Z,182.35
2022-11-26T00:47:13.135Z,178.30
2022-11-26T00:49:41.802Z,175.35
2022-11-26T00:52:29.800Z,246.32
2022-11-26T00:54:57.087Z,173.73
2022-11-26T00:57:27.799Z,173.32
2022-11-26T00:59:57.293Z,175.68
2022-11-26T01:02:27.689Z,179.32
2022-11-26T01:04:55.500Z,170.65
2022-11-26T01:07:22.979Z,156.55
2022-11-26T01:09:50.209Z,186.32
2022-11-26T01:12:20.260Z,169.27
2022-11-26T01:14:47.582Z,189.02
2022-11-26T01:17:15.514Z,241.70
2022-11-26T01:19:42.571Z,168.20
2022-11-26T01:22:23.397Z,244.27
2022-11-26T01:24:50.698Z,235.77
2022-11-26T01:27:21.067Z,271.52
2022-11-26T01:29:48.261Z,370.45
2022-11-26T01:32:15.978Z,203.95
2022-11-26T01:34:43.036Z,313.40
2022-11-26T01:37:14.474Z,225.98
2022-11-26T01:39:44.781Z,360.25
2022-11-26T01:42:41.336Z,433.33
2022-11-26T01:45:25.121Z,237.80
2022-11-26T01:47:54.962Z,354.27
2022-11-26T01:50:28.724Z,375.60
2022-11-26T01:53:04.349Z,405.08
2022-11-26T01:55:40.909Z,477.50
2022-11-26T01:58:14.605Z,256.27
2022-11-26T02:00:45.247Z,364.30
2022-11-26T02:03:12.897Z,415.13
2022-11-26T02:05:44.905Z,444.23
2022-11-26T02:10:39.935Z,454.70
2022-11-26T02:13:10.049Z,331.25
2022-11-26T02:18:25.980Z,227.50
2022-11-26T02:21:02.376Z,284.48
2022-11-26T02:24:04.668Z,284.45
2022-11-26T02:26:48.503Z,225.38
2022-11-26T02:29:27.265Z,385.40
2022-11-26T02:32:11.792Z,219.10
2022-11-26T02:34:56.569Z,304.83
2022-11-26T02:37:31.292Z,260.88
2022-11-26T02:40:01.433Z,216.77
2022-11-26T02:42:34.302Z,239.52
2022-11-26T02:45:26.311Z,204.75
2022-11-26T02:47:59.862Z,200.02
2022-11-26T02:50:32.538Z,236.85
2022-11-26T02:53:04.719Z,209.98
2022-11-26T02:58:04.924Z,197.25
2022-11-26T03:00:36.134Z,210.15
2022-11-26T03:03:22.952Z,174.13
2022-11-26T03:05:59.849Z,166.73
2022-11-26T03:08:32.878Z,183.48
2022-11-26T03:11:05.581Z,187.23
2022-11-26T03:13:34.942Z,200.50
2022-11-26T03:16:02.405Z,165.48
2022-11-26T03:18:29.528Z,185.30
2022-11-26T03:20:57.016Z,207.00
2022-11-26T03:23:24.132Z,179.13
2022-11-26T03:25:51.515Z,194.30
2022-11-26T03:28:40.844Z,203.88
2022-11-26T03:31:08.413Z,205.32
2022-11-26T03:33:35.660Z,207.52
2022-11-26T03:36:03.725Z,205.88
2022-11-26T03:38:35.798Z,239.13
2022-11-26T03:41:05.658Z,197.18
2022-11-26T03:43:35.248Z,220.27
2022-11-26T03:46:02.936Z,204.80
2022-11-26T03:48:52.674Z,211.70
2022-11-26T03:51:24.343Z,224.95
2022-11-26T03:53:51.512Z,201.45
2022-11-26T03:56:18.857Z,209.82
2022-11-26T03:58:48.051Z,203.05
2022-11-26T04:01:15.617Z,198.68
2022-11-26T04:03:42.855Z,213.57
2022-11-26T04:06:10.243Z,212.38
2022-11-26T04:08:37.452Z,186.85
2022-11-26T04:11:05.094Z,175.55
2022-11-26T04:13:32.350Z,174.45
2022-11-26T04:16:00.037Z,167.30
2022-11-26T04:18:27.105Z,172.40
2022-11-26T04:20:56.723Z,162.93
2022-11-26T04:23:26.481Z,165.15
2022-11-26T04:25:53.916Z,157.82
2022-11-26T04:28:21.003Z,165.70
2022-11-26T04:30:48.522Z,154.02
2022-11-26T04:33:15.791Z,160.52
2022-11-26T04:35:45.554Z,160.10
2022-11-26T04:38:12.902Z,157.40
2022-11-26T04:41:02.480Z,147.90
2022-11-26T04:43:29.644Z,148.75
2022-11-26T04:46:04.552Z,142.65
2022-11-26T04:48:36.593Z,150.18
2022-11-26T04:51:04.270Z,156.18
2022-11-26T04:53:31.731Z,145.05
2022-11-26T04:55:59.281Z,145.13
2022-11-26T04:58:28.769Z,151.80
2022-11-26T05:00:58.847Z,133.52
2022-11-26T05:03:26.541Z,144.60
2022-11-26T05:05:54.032Z,140.02
2022-11-26T05:08:23.423Z,146.38
2022-11-26T05:10:55.258Z,140.00
2022-11-26T05:13:22.548Z,138.60
2022-11-26T05:15:52.738Z,138.68
2022-11-26T05:18:20.183Z,136.13
2022-11-26T05:20:49.867Z,144.90
2022-11-26T05:23:21.901Z,136.73
2022-11-26T05:25:53.385Z,154.02
2022-11-26T05:28:23.030Z,142.40
2022-11-26T05:31:04.017Z,162.20
2022-11-26T05:33:31.814Z,152.40
2022-11-26T05:36:01.489Z,151.27
2022-11-26T05:38:28.785Z,138.77
2022-11-26T05:40:58.950Z,138.10
2022-11-26T05:43:26.205Z,144.07
2022-11-26T05:45:56.206Z,149.88
2022-11-26T05:48:25.566Z,165.20
2022-11-26T05:51:00.495Z,158.32
2022-11-26T05:53:30.512Z,169.55
2022-11-26T05:55:58.001Z,138.15
2022-11-26T05:58:27.617Z,153.80
2022-11-26T06:00:55.107Z,163.93
2022-11-26T06:03:27.032Z,169.75
2022-11-26T06:05:54.592Z,159.80
2022-11-26T06:08:21.693Z,157.10
2022-11-26T06:11:11.198Z,158.40
2022-11-26T06:13:40.894Z,184.80
2022-11-26T06:16:09.637Z,180.38
2022-11-26T06:18:38.010Z,174.32
2022-11-26T06:21:07.347Z,174.80
2022-11-26T06:23:34.822Z,193.43
2022-11-26T06:26:13.764Z,175.27
2022-11-26T06:28:48.784Z,179.68
2022-11-26T06:31:18.650Z,164.73
2022-11-26T06:33:51.338Z,196.80
2022-11-26T06:36:22.443Z,166.20
2022-11-26T06:38:51.597Z,177.65
2022-11-26T06:41:19.245Z,187.77
2022-11-26T06:43:48.786Z,192.57
2022-11-26T06:48:48.591Z,170.73
2022-11-26T06:51:22.004Z,167.68
2022-11-26T06:53:54.502Z,161.73
2022-11-26T06:56:22.031Z,149.05
2022-11-26T06:58:57.397Z,159.50
2022-11-26T07:01:27.360Z,150.45
2022-11-26T07:03:54.922Z,142.05
2022-11-26T07:06:25.208Z,159.48
2022-11-26T07:08:59.877Z,157.38
2022-11-26T07:11:33.084Z,138.88
2022-11-26T07:14:01.680Z,152.10
2022-11-26T07:16:29.276Z,138.73
2022-11-26T07:19:03.235Z,146.57
2022-11-26T07:21:31.209Z,150.60
2022-11-26T07:24:00.632Z,167.75
2022-11-26T07:26:30.200Z,145.10
2022-11-26T07:28:59.807Z,143.63
2022-11-26T07:31:29.927Z,152.63
2022-11-26T07:34:02.463Z,132.15
2022-11-26T07:36:30.953Z,144.93
2022-11-26T07:39:00.230Z,157.95
2022-11-26T07:41:30.710Z,139.77
2022-11-26T07:44:00.154Z,140.00
2022-11-26T07:46:27.705Z,146.02
2022-11-26T07:48:57.863Z,147.20
2022-11-26T07:51:30.875Z,135.98
2022-11-26T07:54:02.768Z,130.50
2022-11-26T07:56:30.517Z,132.13
2022-11-26T07:58:57.774Z,140.95
2022-11-26T08:01:30.624Z,120.32
2022-11-26T08:04:06.682Z,106.45
2022-11-26T08:06:34.677Z,98.85
2022-11-26T08:09:03.482Z,100.03
2022-11-26T08:11:35.465Z,102.40
2022-11-26T08:14:06.157Z,108.40
2022-11-26T08:16:34.343Z,114.38
2022-11-26T08:19:07.468Z,102.47
2022-11-26T08:21:45.518Z,121.70
2022-11-26T08:24:15.767Z,117.63
2022-11-26T08:26:44.513Z,116.28
2022-11-26T08:29:15.146Z,113.78
2022-11-26T08:31:46.500Z,130.85
2022-11-26T08:34:17.614Z,137.25
2022-11-26T08:36:47.660Z,124.55
2022-11-26T08:39:18.904Z,118.53
2022-11-26T08:41:52.184Z,126.47
2022-11-26T08:44:22.668Z,110.35
2022-11-26T08:46:52.502Z,121.20
2022-11-26T08:49:19.710Z,125.22
2022-11-26T08:51:47.155Z,123.72
2022-11-26T08:54:16.373Z,127.38
2022-11-26T08:56:43.811Z,127.80
2022-11-26T08:59:10.879Z,112.88
2022-11-26T09:01:38.413Z,108.50
2022-11-26T09:04:05.678Z,122.35
2022-11-26T09:06:36.673Z,126.43
2022-11-26T09:09:12.653Z,136.70
2022-11-26T09:11:49.810Z,131.93
2022-11-26T09:14:20.437Z,135.18
2022-11-26T09:16:53.296Z,124.85
2022-11-26T09:19:24.508Z,126.78
2022-11-26T09:21:54.226Z,120.35
2022-11-26T09:24:22.913Z,131.18
2022-11-26T09:26:50.427Z,134.50
2022-11-26T09:29:20.431Z,125.35
2022-11-26T09:32:21.526Z,127.95
2022-11-26T09:34:43.021Z,123.43
2022-11-26T09:37:13.653Z,112.20
2022-11-26T09:39:41.097Z,111.35
2022-11-26T09:42:25.883Z,108.93
2022-11-26T09:45:10.257Z,108.32
2022-11-26T09:47:45.582Z,111.53
2022-11-26T09:50:15.136Z,96.50
2022-11-26T09:52:52.372Z,98.28
2022-11-26T09:55:27.822Z,86.35
2022-11-26T09:58:06.330Z,79.03
2022-11-26T10:00:39.332Z,67.28
2022-11-26T10:03:14.354Z,83.03
2022-11-26T10:06:02.298Z,74.75
2022-11-26T10:09:07.989Z,89.60
2022-11-26T10:11:53.012Z,68.45
2022-11-26T10:15:04.614Z,60.17
2022-11-26T10:18:01.283Z,65.88
2022-11-26T10:20:51.978Z,77.88
2022-11-26T10:23:28.885Z,74.85
2022-11-26T10:26:15.474Z,98.05
2022-11-26T10:28:50.565Z,98.82
2022-11-26T10:31:26.490Z,88.05
2022-11-26T10:33:53.803Z,87.00
2022-11-26T10:36:31.470Z,84.70
2022-11-26T10:39:06.193Z,92.78
2022-11-26T10:44:41.960Z,92.25
2022-11-26T10:47:33.366Z,91.97
2022-11-26T10:50:25.121Z,103.60
2022-11-26T10:52:57.865Z,89.55
2022-11-26T10:55:31.023Z,87.22
2022-11-26T10:58:05.809Z,94.35
2022-11-26T11:00:57.858Z,99.20
2022-11-26T11:06:34.761Z,88.82
2022-11-26T11:09:25.690Z,92.15
2022-11-26T11:12:11.316Z,101.88
2022-11-26T11:14:46.665Z,100.60
2022-11-26T11:17:36.906Z,101.80
2022-11-26T11:20:15.551Z,95.57
2022-11-26T11:22:47.370Z,94.65
2022-11-26T11:25:26.637Z,85.25
2022-11-26T11:27:59.800Z,93.57
2022-11-26T11:30:30.054Z,89.90
2022-11-26T11:33:26.576Z,104.25
2022-11-26T11:36:07.327Z,100.18
2022-11-26T11:38:54.678Z,101.80
2022-11-26T11:41:43.531Z,109.35
2022-11-26T11:44:16.388Z,91.95
2022-11-26T11:47:20.738Z,101.60
2022-11-26T11:50:12.952Z,105.53
2022-11-26T11:53:02.312Z,110.72
2022-11-26T11:55:32.577Z,115.18
2022-11-26T11:58:46.595Z,114.30
2022-11-26T12:01:38.767Z,117.10
2022-11-26T12:04:34.701Z,109.93
2022-11-26T12:07:39.025Z,123.78
2022-11-26T12:10:12.744Z,125.63
2022-11-26T12:12:56.507Z,107.13
2022-11-26T12:15:35.071Z,121.07
2022-11-26T12:18:33.736Z,110.03
2022-11-26T12:21:09.782Z,108.90
2022-11-26T12:23:52.714Z,95.55
2022-11-26T12:26:31.228Z,105.22
2022-11-26T12:29:26.560Z,107.05
2022-11-26T12:32:23.641Z,118.32
2022-11-26T12:34:54.169Z,117.05
2022-11-26T12:37:28.335Z,106.78
2022-11-26T12:40:07.241Z,112.97
2022-11-26T12:42:49.315Z,105.78
2022-11-26T12:45:30.265Z,115.97
2022-11-26T12:48:15.294Z,84.40
2022-11-26T12:50:52.337Z,81.43
2022-11-26T12:53:32.598Z,77.30
2022-11-26T12:56:16.688Z,74.85
2022-11-26T12:59:13.343Z,75.93
2022-11-26T13:01:42.951Z,75.63
2022-11-26T13:07:23.399Z,60.08
2022-11-26T13:10:21.962Z,57.78
2022-11-26T13:13:15.119Z,76.32
2022-11-26T13:15:50.480Z,71.90
2022-11-26T13:18:28.962Z,68.07
2022-11-26T13:21:28.723Z,83.25
2022-11-26T13:24:37.720Z,82.25
2022-11-26T13:27:22.773Z,96.35
2022-11-26T13:30:03.189Z,104.15
2022-11-26T13:33:05.284Z,93.20
2022-11-26T13:35:50.755Z,104.13
2022-11-26T13:38:24.330Z,102.13
2022-11-26T13:41:20.841Z,119.65
2022-11-26T13:44:15.326Z,105.53
2022-11-26T13:46:59.922Z,102.63
2022-11-26T13:49:45.797Z,98.63
2022-11-26T13:52:22.235Z,101.88
2022-11-26T13:55:09.455Z,104.05
2022-11-26T13:57:51.646Z,96.18
2022-11-26T14:00:44.983Z,105.40
2022-11-26T14:03:46.658Z,102.15
2022-11-26T14:06:15.054Z,98.18
2022-11-26T14:08:48.382Z,95.53
2022-11-26T14:11:46.007Z,103.13
2022-11-26T14:14:26.892Z,107.88
2022-11-26T14:17:15.386Z,100.10
2022-11-26T14:19:42.741Z,95.32
2022-11-26T14:22:21.674Z,85.00
2022-11-26T14:24:51.104Z,88.85
2022-11-26T14:27:27.978Z,86.78
2022-11-26T14:30:17.956Z,91.10
2022-11-26T14:33:12.279Z,69.90
2022-11-26T14:35:40.400Z,87.07
2022-11-26T14:38:27.138Z,75.20
2022-11-26T14:40:59.894Z,86.25
2022-11-26T14:43:32.036Z,84.03
2022-11-26T14:48:49.840Z,85.85
2022-11-26T14:51:26.789Z,87.75
2022-11-26T14:53:58.506Z,87.32
2022-11-26T14:56:26.668Z,94.65
2022-11-26T14:59:01.697Z,90.05
2022-11-26T15:01:32.502Z,91.13
2022-11-26T15:04:02.857Z,93.47
2022-11-26T15:06:35.002Z,102.93
2022-11-26T15:09:25.447Z,112.10
2022-11-26T15:12:01.501Z,99.45
2022-11-26T15:14:54.572Z,96.80
2022-11-26T15:17:30.726Z,103.70
2022-11-26T15:20:05.409Z,109.55
2022-11-26T15:22:39.687Z,111.25
2022-11-26T15:25:25.029Z,98.70
2022-11-26T15:28:17.775Z,107.75
2022-11-26T15:31:14.737Z,103.20
2022-11-26T15:33:44.532Z,111.63
2022-11-26T15:36:17.977Z,104.03
2022-11-26T15:39:03.793Z,104.80
2022-11-26T15:41:42.503Z,100.97
2022-11-26T15:44:42.936Z,98.22
2022-11-26T15:47:20.364Z,103.50
2022-11-26T15:49:59.449Z,111.20
2022-11-26T15:52:32.938Z,107.13
2022-11-26T15:55:14.729Z,97.65
2022-11-26T15:57:42.993Z,97.82
2022-11-26T16:00:32.318Z,90.07
2022-11-26T16:03:00.310Z,89.30
2022-11-26T16:05:29.976Z,93.70
2022-11-26T16:08:24.894Z,98.90
2022-11-26T16:11:04.791Z,105.82
2022-11-26T16:13:36.290Z,93.25
2022-11-26T16:16:17.521Z,101.10
2022-11-26T16:18:54.067Z,99.43
2022-11-26T16:21:29.505Z,101.03
2022-11-26T16:24:02.458Z,100.82
2022-11-26T16:26:30.183Z,91.68
2022-11-26T16:28:57.944Z,88.32
2022-11-26T16:31:25.323Z,80.53
2022-11-26T16:33:52.945Z,84.70
2022-11-26T16:36:33.622Z,78.22
2022-11-26T16:39:03.611Z,73.30
2022-11-26T16:41:30.724Z,74.38
2022-11-26T16:43:58.675Z,82.25
2022-11-26T16:46:27.824Z,86.07
2022-11-26T16:49:00.969Z,88.75
2022-11-26T16:51:30.486Z,74.30
2022-11-26T16:54:00.150Z,87.82
2022-11-26T16:56:37.299Z,82.55
2022-11-26T16:59:19.515Z,83.38
2022-11-26T17:01:46.820Z,79.70
2022-11-26T17:04:14.721Z,94.95
2022-11-26T17:06:44.572Z,95.97
2022-11-26T17:09:21.143Z,99.38
2022-11-26T17:11:50.877Z,93.45
2022-11-26T17:14:18.353Z,93.80
2022-11-26T17:16:47.675Z,114.50
2022-11-26T17:19:16.420Z,108.47
2022-11-26T17:21:43.558Z,115.40
2022-11-26T17:24:11.180Z,119.68
2022-11-26T17:26:44.295Z,107.65
2022-11-26T17:29:13.362Z,109.35
2022-11-26T17:31:43.062Z,112.95
2022-11-26T17:34:12.749Z,119.95
2022-11-26T17:36:46.902Z,111.50
2022-11-26T17:39:14.674Z,115.05
2022-11-26T17:41:44.202Z,115.90
2022-11-26T17:44:13.753Z,114.28
2022-11-26T17:47:01.456Z,131.07
2022-11-26T17:49:32.060Z,120.03
2022-11-26T17:51:59.333Z,119.50
2022-11-26T17:54:26.987Z,121.00
2022-11-26T17:56:57.011Z,122.50
2022-11-26T17:59:24.463Z,120.65
2022-11-26T18:01:53.965Z,118.13
2022-11-26T18:04:24.195Z,124.55
2022-11-26T18:07:14.137Z,123.18
2022-11-26T18:09:42.240Z,134.60
2022-11-26T18:12:25.167Z,121.47
2022-11-26T18:14:58.013Z,118.90
2022-11-26T18:17:25.517Z,115.55
2022-11-26T18:19:52.975Z,101.88
2022-11-26T18:22:22.674Z,112.95
2022-11-26T18:24:56.846Z,104.93
2022-11-26T18:27:30.616Z,131.13
2022-11-26T18:30:03.026Z,140.13
2022-11-26T18:32:30.319Z,100.53
2022-11-26T18:35:05.779Z,103.43
2022-11-26T18:37:37.293Z,106.88
2022-11-26T18:40:08.696Z,108.50
2022-11-26T18:42:37.871Z,106.55
2022-11-26T18:45:13.261Z,133.27
2022-11-26T18:47:45.834Z,122.63
2022-11-26T18:50:17.217Z,163.38
2022-11-26T18:52:44.566Z,139.35
2022-11-26T18:55:15.925Z,150.00
2022-11-26T18:57:47.549Z,141.18
2022-11-26T19:00:19.636Z,129.07
2022-11-26T19:02:46.911Z,127.25
2022-11-26T19:05:17.121Z,132.25
2022-11-26T19:07:46.927Z,153.73
2022-11-26T19:10:17.013Z,134.98
2022-11-26T19:12:47.729Z,123.63
2022-11-26T19:15:19.865Z,126.57
2022-11-26T19:17:47.022Z,139.15
2022-11-26T19:20:16.867Z,111.18
2022-11-26T19:22:46.216Z,117.38
2022-11-26T19:25:16.877Z,109.45
2022-11-26T19:27:44.040Z,101.13
2022-11-26T19:30:18.111Z,102.13
2022-11-26T19:32:48.059Z,111.97
2022-11-26T19:35:22.821Z,101.15
2022-11-26T19:40:23.190Z,109.32
2022-11-26T19:42:52.938Z,99.47
2022-11-26T19:45:22.961Z,103.43
2022-11-26T19:47:51.042Z,98.22
2022-11-26T19:50:18.500Z,104.25
2022-11-26T19:52:48.089Z,110.78
2022-11-26T19:55:18.297Z,142.40
2022-11-26T19:57:45.477Z,109.70
2022-11-26T20:00:13.470Z,110.63
2022-11-26T20:02:40.818Z,108.25
2022-11-26T20:05:12.758Z,108.00
2022-11-26T20:07:45.255Z,109.32
2022-11-26T20:10:15.558Z,96.50
2022-11-26T20:12:42.642Z,93.53
2022-11-26T20:15:10.983Z,103.53
2022-11-26T20:17:38.203Z,90.30
2022-11-26T20:20:06.220Z,92.68
2022-11-26T20:22:37.481Z,102.63
2022-11-26T20:25:05.422Z,83.47
2022-11-26T20:27:32.540Z,92.15
2022-11-26T20:30:02.243Z,85.10
2022-11-26T20:32:29.803Z,95.65
2022-11-26T20:35:00.121Z,88.03
2022-11-26T20:40:01.576Z,90.43
2022-11-26T20:42:32.543Z,96.63
2022-11-26T20:45:02.716Z,100.93
2022-11-26T20:47:33.510Z,95.63
2022-11-26T20:50:03.348Z,98.63
2022-11-26T20:52:32.797Z,99.13
2022-11-26T20:55:00.444Z,97.78
2022-11-26T20:57:37.816Z,103.20
2022-11-26T21:00:07.594Z,106.32
2022-11-26T21:02:35.041Z,103.43
2022-11-26T21:05:05.172Z,108.70
2022-11-26T21:07:32.457Z,105.47
2022-11-26T21:10:02.770Z,102.05
2022-11-26T21:12:29.846Z,104.25
2022-11-26T21:15:03.898Z,113.90
2022-11-26T21:17:33.467Z,104.20
2022-11-26T21:20:03.580Z,103.20
2022-11-26T21:22:33.537Z,104.82
2022-11-26T21:25:06.160Z,110.32
2022-11-26T21:27:35.032Z,111.63
2022-11-26T21:30:08.441Z,104.78
2022-11-26T21:32:40.452Z,106.00
2022-11-26T21:35:10.561Z,103.90
2022-11-26T21:37:40.470Z,104.05
2022-11-26T21:40:08.728Z,107.00
2022-11-26T21:42:40.560Z,102.65
2022-11-26T21:45:11.033Z,104.65
2022-11-26T21:47:38.189Z,104.00
2022-11-26T21:50:06.316Z,98.55
2022-11-26T21:52:35.633Z,113.80
2022-11-26T21:55:03.938Z,111.85
2022-11-26T21:57:34.514Z,106.28
2022-11-26T22:00:04.503Z,104.70
2022-11-26T22:02:35.909Z,93.50
2022-11-26T22:05:06.335Z,99.63
2022-11-26T22:07:33.598Z,92.78
2022-11-26T22:10:03.602Z,101.93
2022-11-26T22:12:33.198Z,101.45
2022-11-26T22:15:05.181Z,110.00
2022-11-26T22:17:37.193Z,100.22
2022-11-26T22:20:08.623Z,98.47
2022-11-26T22:22:40.583Z,103.72
2022-11-26T22:25:10.491Z,102.35
2022-11-26T22:27:37.788Z,105.95
2022-11-26T22:30:08.417Z,106.78
2022-11-26T22:32:35.778Z,107.20
2022-11-26T22:35:03.405Z,105.18
2022-11-26T22:37:30.587Z,111.97
2022-11-26T22:40:00.154Z,121.32
2022-11-26T22:42:27.460Z,114.20
2022-11-26T22:45:06.235Z,112.15
2022-11-26T22:47:36.072Z,108.38
2022-11-26T22:50:06.320Z,107.43
2022-11-26T22:52:33.467Z,112.43
2022-11-26T22:55:03.178Z,114.47
2022-11-26T22:57:32.723Z,122.88
2022-11-26T23:00:04.679Z,115.32
2022-11-26T23:02:31.920Z,106.00
2022-11-26T23:04:59.522Z,111.15
2022-11-26T23:07:28.936Z,106.43
2022-11-26T23:10:03.706Z,107.70
2022-11-26T23:12:33.576Z,110.60
2022-11-26T23:17:35.356Z,118.80
2022-11-26T23:20:03.949Z,115.50
2022-11-26T23:22:31.017Z,111.68
2022-11-26T23:24:58.602Z,126.88
2022-11-26T23:27:28.289Z,113.15
2022-11-26T23:29:55.788Z,110.47
2022-11-26T23:32:22.984Z,112.07
2022-11-26T23:34:52.709Z,109.43
2022-11-26T23:37:19.771Z,109.50
2022-11-26T23:39:50.097Z,110.60
2022-11-26T23:42:17.946Z,111.72
2022-11-26T23:44:48.417Z,114.00
2022-11-26T23:47:18.166Z,115.38
2022-11-26T23:49:55.251Z,110.80
2022-11-26T23:52:24.368Z,115.37
2022-11-26T23:54:57.026Z,107.93
2022-11-26T23:57:24.128Z,107.80
2022-11-26T23:59:53.809Z,120.25
